Time;durP1;ratioP1;P1;durP2;ratioP2;P2;SDS_P1;SDS_P2;PMS_P1;PMS_P2;Temp;Humidity;BMP_temperature;BMP_pressure;BME280_temperature;BME280_humidity;BME280_pressure;Samples;Min_cycle;Max_cycle;Signal;HPM_P1;HPM_P2
2022/11/24 00:04:41;;;;;;;7.80;3.70;;;;;;;5.99;100.00;99720.38;20799346;28;20075;-73
2022/11/24 00:15:03;;;;;;;7.50;3.27;;;;;;;5.91;100.00;99725.19;20791458;28;20408;-72
2022/11/24 00:25:25;;;;;;;7.97;4.07;;;;;;;5.79;100.00;99725.16;20793887;28;20621;-72
2022/11/24 00:35:54;;;;;;;11.90;4.03;;;;;;;5.69;100.00;99729.19;20777490;23;20504;-67
2022/11/24 00:46:16;;;;;;;13.60;4.88;;;;;;;5.61;100.00;99735.75;20756910;28;20046;-68
2022/11/24 00:56:37;;;;;;;8.32;4.57;;;;;;;5.54;100.00;99750.81;20744953;28;20057;-69
2022/11/24 01:06:59;;;;;;;10.67;5.00;;;;;;;5.59;100.00;99753.94;20747354;28;20042;-69
2022/11/24 01:17:21;;;;;;;10.80;4.97;;;;;;;5.68;100.00;99764.56;20753852;28;20056;-70
2022/11/24 01:27:42;;;;;;;11.77;5.70;;;;;;;5.69;100.00;99766.22;20732460;28;20064;-70
2022/11/24 01:38:04;;;;;;;12.77;6.00;;;;;;;5.67;100.00;99772.41;20730954;28;20123;-69
2022/11/24 01:48:28;;;;;;;;;;;;;;;5.53;100.00;99769.00;20740898;28;20042;-69
2022/11/24 01:58:52;;;;;;;8.45;5.00;;;;;;;5.40;100.00;99773.25;20750648;28;19921;-69
2022/11/24 02:09:26;;;;;;;11.55;5.65;;;;;;;5.31;100.00;99795.31;20733565;28;20041;-70
2022/11/24 02:19:53;;;;;;;18.27;5.90;;;;;;;5.23;100.00;99820.78;20738954;28;20041;-70
2022/11/24 02:30:14;;;;;;;12.43;6.20;;;;;;;5.17;100.00;99821.13;20743837;28;20042;-70
2022/11/24 02:40:36;;;;;;;14.60;6.13;;;;;;;5.07;100.00;99832.94;20733880;28;20056;-70
2022/11/24 02:50:58;;;;;;;17.53;6.30;;;;;;;4.97;100.00;99849.84;20734647;28;20041;-70
2022/11/24 03:01:19;;;;;;;11.67;6.10;;;;;;;4.90;100.00;99850.28;20730598;28;20301;-69
2022/11/24 03:11:41;;;;;;;10.77;5.67;;;;;;;4.89;100.00;99848.63;20721049;28;20050;-69
2022/11/24 03:22:03;;;;;;;13.00;6.30;;;;;;;4.87;100.00;99869.38;20711520;28;20108;-65
2022/11/24 03:32:24;;;;;;;13.80;5.80;;;;;;;4.90;100.00;99874.38;20738158;28;20132;-66
2022/11/24 03:42:46;;;;;;;13.47;6.73;;;;;;;4.84;100.00;99879.88;20738260;28;20046;-66
2022/11/24 03:53:08;;;;;;;14.57;5.80;;;;;;;4.83;100.00;99900.63;20735100;28;20069;-66
2022/11/24 04:03:29;;;;;;;15.57;5.33;;;;;;;4.89;100.00;99913.16;20720946;28;20053;-66
2022/11/24 04:13:51;;;;;;;14.53;5.67;;;;;;;4.88;100.00;99922.69;20702363;28;20095;-66
2022/11/24 04:24:13;;;;;;;14.93;5.67;;;;;;;4.96;100.00;99925.66;20743986;28;20045;-67
2022/11/24 04:34:36;;;;;;;15.35;5.93;;;;;;;5.02;100.00;99938.22;20745834;28;20049;-66
2022/11/24 04:44:58;;;;;;;18.77;5.90;;;;;;;5.02;100.00;99943.38;20735523;28;20037;-66
2022/11/24 04:55:19;;;;;;;18.13;4.90;;;;;;;5.03;100.00;99954.53;20745010;28;20053;-67
2022/11/24 05:05:41;;;;;;;11.67;5.03;;;;;;;5.11;100.00;99968.69;20742124;28;20049;-66
2022/11/24 05:16:03;;;;;;;16.80;5.40;;;;;;;5.20;100.00;99978.53;20744979;28;20041;-67
2022/11/24 05:26:25;;;;;;;20.88;3.90;;;;;;;5.28;100.00;99997.00;20727120;28;20085;-66
2022/11/24 05:36:53;;;;;;;17.38;3.45;;;;;;;5.32;100.00;100007.97;20726637;28;20112;-67
2022/11/24 05:47:14;;;;;;;16.55;4.00;;;;;;;5.37;100.00;100012.00;20743314;28;20971;-67
2022/11/24 05:57:36;;;;;;;12.17;3.03;;;;;;;5.37;100.00;100017.16;20737854;28;20103;-66
2022/11/24 06:07:59;;;;;;;19.13;4.13;;;;;;;5.37;100.00;100027.50;20732595;28;20073;-66
2022/11/24 06:18:20;;;;;;;15.57;3.17;;;;;;;5.28;100.00;100038.31;20741617;28;20104;-67
2022/11/24 06:28:42;;;;;;;10.73;3.23;;;;;;;5.16;100.00;100049.34;20749855;28;20076;-66
2022/11/24 06:39:05;;;;;;;14.32;2.80;;;;;;;5.17;100.00;100066.50;20817522;22;20404;-69
2022/11/24 06:49:26;;;;;;;18.30;3.45;;;;;;;5.11;100.00;100060.84;20784628;28;20048;-69
2022/11/24 06:59:48;;;;;;;17.07;3.97;;;;;;;5.24;100.00;100083.31;20781411;28;20052;-69
2022/11/24 07:10:09;;;;;;;21.57;3.87;;;;;;;5.22;100.00;100111.03;20773875;28;20082;-69
2022/11/24 07:20:31;;;;;;;14.23;3.33;;;;;;;5.23;100.00;100125.59;20783787;28;20107;-69
2022/11/24 07:30:52;;;;;;;16.77;3.47;;;;;;;5.18;100.00;100145.69;20792464;28;20099;-69
2022/11/24 07:41:16;;;;;;;15.87;3.20;;;;;;;5.12;100.00;100171.81;20793761;28;20324;-69
2022/11/24 07:51:37;;;;;;;20.98;3.78;;;;;;;5.14;100.00;100187.25;20775692;28;20132;-69
2022/11/24 08:01:59;;;;;;;19.37;3.90;;;;;;;5.20;100.00;100194.66;20784745;28;20045;-69
2022/11/24 08:12:20;;;;;;;19.90;3.20;;;;;;;5.25;100.00;100203.84;20798224;28;20080;-69
2022/11/24 08:22:42;;;;;;;13.37;3.37;;;;;;;5.34;100.00;100212.84;20794814;28;20053;-70
2022/11/24 08:33:03;;;;;;;20.67;3.47;;;;;;;5.46;100.00;100225.97;20800303;28;20045;-69
2022/11/24 08:43:25;;;;;;;19.57;3.50;;;;;;;5.58;100.00;100237.41;20800160;28;20042;-69
2022/11/24 08:53:47;;;;;;;19.23;3.27;;;;;;;5.66;100.00;100241.25;20796278;28;20049;-69
2022/11/24 09:04:08;;;;;;;21.38;3.78;;;;;;;5.74;100.00;100249.41;20778972;28;20050;-68
2022/11/24 09:14:30;;;;;;;18.57;3.57;;;;;;;5.82;100.00;100258.47;20794098;28;20046;-69
2022/11/24 09:24:52;;;;;;;19.20;3.58;;;;;;;5.96;100.00;100265.47;20783535;28;20052;-69
2022/11/24 09:35:13;;;;;;;15.47;3.93;;;;;;;6.09;100.00;100269.88;20787780;28;20049;-68
2022/11/24 09:45:47;;;;;;;17.33;3.47;;;;;;;6.34;100.00;100277.13;20832076;28;20068;-68
2022/11/24 09:56:33;;;;;;;16.73;3.60;;;;;;;6.47;100.00;100288.44;20809495;28;20132;-68
2022/11/24 10:07:04;;;;;;;23.33;3.58;;;;;;;6.65;100.00;100295.16;20771624;28;20094;-68
2022/11/24 10:17:37;;;;;;;16.08;3.42;;;;;;;6.82;100.00;100301.91;20807995;28;20038;-69
2022/11/24 10:28:03;;;;;;;16.13;3.53;;;;;;;7.11;100.00;100315.72;20760453;28;20593;-69
2022/11/24 10:38:42;;;;;;;20.00;3.80;;;;;;;7.39;100.00;100324.41;20801817;28;20045;-69
2022/11/24 10:49:04;;;;;;;16.83;3.20;;;;;;;7.44;100.00;100332.72;20833967;28;20126;-69
2022/11/24 10:59:30;;;;;;;14.45;3.38;;;;;;;7.51;100.00;100344.41;20815926;28;20045;-68
2022/11/24 11:10:22;;;;;;;13.40;3.30;;;;;;;7.62;100.00;100357.56;20796401;28;20136;-68
2022/11/24 11:20:55;;;;;;;13.80;3.07;;;;;;;7.84;99.62;100373.50;20788632;28;20165;-69
2022/11/24 11:31:19;;;;;;;16.83;3.13;;;;;;;7.99;98.33;100388.16;20896905;28;20056;-66
2022/11/24 11:41:46;;;;;;;17.38;3.13;;;;;;;8.01;98.40;100407.03;20804310;28;20087;-69
2022/11/24 11:52:25;;;;;;;12.65;2.95;;;;;;;8.14;98.72;100413.16;20801205;28;20053;-69
2022/11/24 12:03:19;;;;;;;12.15;2.95;;;;;;;8.17;98.88;100402.59;20792291;28;20107;-69
2022/11/24 12:13:49;;;;;;;13.23;2.92;;;;;;;8.19;98.58;100422.38;20792785;28;20045;-69
2022/11/24 12:24:20;;;;;;;8.80;2.63;;;;;;;8.35;98.14;100432.63;20792332;28;20077;-68
2022/11/24 12:34:59;;;;;;;8.20;2.00;;;;;;;8.40;97.32;100453.97;20838078;23;20052;-73
2022/11/24 12:45:32;;;;;;;11.48;2.67;;;;;;;8.44;96.99;100458.06;20896360;28;20045;-73
2022/11/24 12:55:59;;;;;;;10.50;2.35;;;;;;;8.52;96.87;100468.78;20905380;28;20044;-73
2022/11/24 13:06:33;;;;;;;11.52;2.83;;;;;;;8.59;97.05;100472.69;20909015;28;20083;-73
2022/11/24 13:17:00;;;;;;;8.40;2.72;;;;;;;8.52;97.40;100461.00;20911723;28;20045;-73
2022/11/24 13:27:44;;;;;;;8.38;2.40;;;;;;;8.46;97.60;100482.16;20883436;28;20332;-73
2022/11/24 13:38:50;;;;;;;8.15;2.80;;;;;;;8.45;97.54;100477.88;20895025;28;20098;-74
2022/11/24 13:49:19;;;;;;;7.15;2.83;;;;;;;8.43;96.90;100493.56;20918293;28;20203;-73
2022/11/24 13:59:40;;;;;;;6.13;2.53;;;;;;;8.38;97.27;100505.16;20926466;28;20080;-73
2022/11/24 14:10:02;;;;;;;6.80;2.53;;;;;;;8.33;97.35;100507.19;20903561;28;20154;-73
2022/11/24 14:20:27;;;;;;;9.73;3.15;;;;;;;8.25;98.16;100493.84;20906492;28;20102;-73
2022/11/24 14:30:48;;;;;;;5.03;3.00;;;;;;;8.20;98.19;100501.06;20872184;28;20130;-76
2022/11/24 14:41:24;;;;;;;10.40;2.93;;;;;;;8.12;99.08;100508.47;20887925;28;20053;-71
2022/11/24 14:51:54;;;;;;;8.23;3.60;;;;;;;7.99;100.00;100533.47;20910538;28;20056;-71
2022/11/24 15:03:14;;;;;;;8.98;3.42;;;;;;;7.83;100.00;100537.88;20882889;28;20062;-74
2022/11/24 15:13:37;;;;;;;7.17;2.90;;;;;;;7.66;100.00;100548.41;20741500;28;20049;-74
2022/11/24 15:24:15;;;;;;;9.15;4.10;;;;;;;7.47;100.00;100555.53;20896268;28;20260;-74
2022/11/24 15:34:37;;;;;;;9.85;4.38;;;;;;;7.34;100.00;100564.94;20901176;28;20202;-74
2022/11/24 15:44:59;;;;;;;9.80;5.03;;;;;;;7.21;100.00;100569.13;20908068;28;20412;-74
2022/11/24 15:55:21;;;;;;;11.10;5.97;;;;;;;7.02;100.00;100584.00;20905569;28;20542;-75
2022/11/24 16:05:42;;;;;;;14.40;5.85;;;;;;;7.02;100.00;100604.72;20888046;28;20045;-73
2022/11/24 16:16:05;;;;;;;14.50;6.70;;;;;;;7.17;100.00;100614.25;20917614;28;20106;-72
2022/11/24 16:26:26;;;;;;;15.10;7.57;;;;;;;7.28;100.00;100627.47;20911297;28;20528;-72
2022/11/24 16:36:48;;;;;;;13.07;7.20;;;;;;;7.36;100.00;100635.69;20909611;28;20106;-69
2022/11/24 16:47:11;;;;;;;13.50;7.70;;;;;;;7.40;100.00;100632.00;20902267;28;20761;-72
2022/11/24 16:57:34;;;;;;;21.20;7.70;;;;;;;7.38;100.00;100638.19;20901959;28;20084;-73
2022/11/24 17:07:56;;;;;;;17.90;7.28;;;;;;;7.34;100.00;100637.53;20881592;28;20044;-73
2022/11/24 17:18:18;;;;;;;17.27;7.50;;;;;;;7.21;100.00;100640.84;20871911;28;20049;-72
2022/11/24 17:28:47;;;;;;;14.07;7.18;;;;;;;7.01;100.00;100654.88;20891201;28;20063;-73
2022/11/24 17:39:09;;;;;;;14.73;8.17;;;;;;;6.80;100.00;100643.06;20891148;28;20091;-73
2022/11/24 17:49:32;;;;;;;18.85;8.63;;;;;;;6.71;100.00;100660.81;20888268;28;20124;-73
2022/11/24 17:59:54;;;;;;;20.20;9.73;;;;;;;6.54;100.00;100647.06;20907958;28;20138;-72
2022/11/24 18:10:15;;;;;;;22.63;10.10;;;;;;;6.37;100.00;100654.84;20924826;28;20725;-73
2022/11/24 18:20:37;;;;;;;17.80;10.23;;;;;;;6.27;100.00;100658.78;20901373;28;20036;-72
2022/11/24 18:31:07;;;;;;;23.33;10.13;;;;;;;6.18;100.00;100654.09;20901855;28;20040;-72
2022/11/24 18:41:29;;;;;;;19.98;9.90;;;;;;;6.09;100.00;100644.19;20862020;22;20126;-61
2022/11/24 18:51:51;;;;;;;27.40;10.33;;;;;;;6.04;100.00;100651.34;20817217;28;20065;-61
2022/11/24 19:02:13;;;;;;;24.05;10.32;;;;;;;5.94;100.00;100655.28;20796323;28;20459;-61
2022/11/24 19:12:34;;;;;;;21.47;10.17;;;;;;;5.87;100.00;100669.41;20808455;28;20124;-61
2022/11/24 19:22:56;;;;;;;19.30;9.73;;;;;;;5.85;100.00;100666.06;20854468;28;20061;-61
2022/11/24 19:33:17;;;;;;;19.37;8.33;;;;;;;5.82;100.00;100661.06;20870453;28;20053;-61
2022/11/24 19:43:40;;;;;;;18.03;7.33;;;;;;;5.81;100.00;100673.13;20843215;28;20103;-61
2022/11/24 19:54:02;;;;;;;15.90;7.97;;;;;;;5.83;100.00;100696.34;20857135;28;20095;-61
2022/11/24 20:04:24;;;;;;;18.38;7.75;;;;;;;5.78;100.00;100696.56;20818798;28;20052;-60
2022/11/24 20:14:45;;;;;;;15.80;6.97;;;;;;;5.69;100.00;100709.91;20848204;28;20042;-60
2022/11/24 20:25:09;;;;;;;17.70;7.60;;;;;;;5.68;100.00;100711.72;20811408;28;20065;-61
2022/11/24 20:35:31;;;;;;;17.00;8.38;;;;;;;5.69;100.00;100707.31;20806043;28;20096;-61
2022/11/24 20:45:52;;;;;;;19.83;8.17;;;;;;;5.63;100.00;100711.94;20914185;28;20113;-61
2022/11/24 20:56:22;;;;;;;14.77;8.40;;;;;;;5.55;100.00;100708.00;20898937;28;20075;-62
2022/11/24 21:06:44;;;;;;;24.85;8.02;;;;;;;5.43;100.00;100724.09;20853943;28;20049;-63
2022/11/24 21:17:06;;;;;;;18.98;8.40;;;;;;;5.39;100.00;100707.88;20830657;28;20940;-62
2022/11/24 21:27:27;;;;;;;17.33;8.97;;;;;;;5.33;100.00;100710.75;20831682;28;20045;-62
2022/11/24 21:37:49;;;;;;;17.23;8.10;;;;;;;5.29;100.00;100710.94;20828839;28;20668;-62
2022/11/24 21:48:10;;;;;;;19.03;8.93;;;;;;;5.23;100.00;100706.91;20801466;28;20062;-62
2022/11/24 21:58:33;;;;;;;18.13;9.30;;;;;;;5.14;100.00;100711.63;20795273;28;20045;-62
2022/11/24 22:08:54;;;;;;;22.00;10.02;;;;;;;5.10;100.00;100710.09;20884911;28;20646;-62
2022/11/24 22:19:16;;;;;;;22.37;10.40;;;;;;;5.09;100.00;100701.50;20813410;28;20053;-62
2022/11/24 22:29:37;;;;;;;22.50;10.82;;;;;;;5.07;100.00;100695.56;20826353;28;20099;-62
2022/11/24 22:39:59;;;;;;;26.60;9.93;;;;;;;5.10;100.00;100700.56;20835786;28;20049;-62
2022/11/24 22:50:20;;;;;;;23.70;9.53;;;;;;;5.12;100.00;100685.03;20835751;28;20075;-63
2022/11/24 23:00:42;;;;;;;22.70;9.87;;;;;;;5.07;100.00;100677.50;20822370;28;20103;-62
2022/11/24 23:11:10;;;;;;;22.80;10.60;;;;;;;5.03;100.00;100686.28;20809468;28;20183;-63
2022/11/24 23:21:33;;;;;;;27.05;10.07;;;;;;;5.05;100.00;100681.88;20823898;28;20115;-62
2022/11/24 23:31:55;;;;;;;23.10;10.15;;;;;;;5.06;100.00;100683.56;20819486;28;20050;-62
2022/11/24 23:42:17;;;;;;;25.67;8.97;;;;;;;5.01;100.00;100670.00;20832123;28;20052;-62
2022/11/24 23:52:38;;;;;;;25.05;8.80;;;;;;;4.96;100.00;100661.59;20846301;28;20095;-60
